Time;durP1;ratioP1;P1;durP2;ratioP2;P2;SDS_P1;SDS_P2;PMS_P1;PMS_P2;Temp;Humidity;BMP_temperature;BMP_pressure;BME280_temperature;BME280_humidity;BME280_pressure;Samples;Min_cycle;Max_cycle;Signal;HPM_P1;HPM_P2
2020/12/11 00:01:00;;;;;;;;;;;19.90;38.80;;;;;;491610;240;1050;-54
2020/12/11 00:03:01;;;;;;;;;;;19.90;38.80;;;;;;491557;240;1045;-54
2020/12/11 00:05:02;;;;;;;;;;;20.00;39.00;;;;;;491716;240;2207;-54
2020/12/11 00:07:03;;;;;;;;;;;20.00;38.80;;;;;;491611;240;1086;-54
2020/12/11 00:09:05;;;;;;;;;;;20.10;38.70;;;;;;491617;240;1126;-53
2020/12/11 00:11:06;;;;;;;;;;;20.10;38.60;;;;;;491653;240;1094;-54
2020/12/11 00:13:07;;;;;;;;;;;20.00;38.70;;;;;;491877;240;1255;-54
2020/12/11 00:15:09;;;;;;;;;;;20.00;38.80;;;;;;491579;240;1202;-53
2020/12/11 00:17:10;;;;;;;;;;;19.90;38.90;;;;;;491777;240;1113;-53
2020/12/11 00:19:11;;;;;;;;;;;19.90;38.90;;;;;;491756;240;1222;-54
2020/12/11 00:21:12;;;;;;;;;;;19.90;39.00;;;;;;491673;240;1161;-53
2020/12/11 00:23:14;;;;;;;;;;;19.80;39.00;;;;;;491590;240;1081;-54
2020/12/11 00:25:15;;;;;;;;;;;19.80;39.10;;;;;;491582;240;2195;-54
2020/12/11 00:27:16;;;;;;;;;;;19.80;39.20;;;;;;491540;240;1171;-54
2020/12/11 00:29:18;;;;;;;;;;;19.80;39.30;;;;;;491678;240;1163;-54
2020/12/11 00:31:19;;;;;;;;;;;19.70;39.30;;;;;;491543;240;1071;-53
2020/12/11 00:33:20;;;;;;;;;;;19.70;39.30;;;;;;491578;240;1061;-54
2020/12/11 00:35:21;;;;;;;;;;;19.60;39.30;;;;;;491749;240;1074;-54
2020/12/11 00:37:23;;;;;;;;;;;19.60;39.40;;;;;;491534;240;1056;-54
2020/12/11 00:39:24;;;;;;;;;;;19.60;39.40;;;;;;491746;240;1114;-54
2020/12/11 00:41:25;;;;;;;;;;;19.60;39.50;;;;;;491525;240;1019;-53
2020/12/11 00:43:26;;;;;;;;;;;19.50;39.50;;;;;;491660;240;1153;-54
2020/12/11 00:45:28;;;;;;;;;;;19.50;39.60;;;;;;491514;240;2188;-54
2020/12/11 00:47:29;;;;;;;;;;;19.50;39.60;;;;;;491569;240;1323;-54
2020/12/11 00:49:30;;;;;;;;;;;19.40;39.70;;;;;;491601;240;1230;-54
2020/12/11 00:51:31;;;;;;;;;;;19.40;39.70;;;;;;491580;240;1330;-53
2020/12/11 00:53:33;;;;;;;;;;;19.40;39.80;;;;;;491693;240;1111;-54
2020/12/11 00:55:34;;;;;;;;;;;19.40;39.80;;;;;;491586;240;986;-54
2020/12/11 00:57:35;;;;;;;;;;;19.30;39.80;;;;;;491575;240;1334;-53
2020/12/11 00:59:37;;;;;;;;;;;19.30;39.90;;;;;;491644;240;1198;-54
2020/12/11 01:01:38;;;;;;;;;;;19.30;39.90;;;;;;491588;240;1119;-54
2020/12/11 01:03:39;;;;;;;;;;;19.30;40.00;;;;;;491601;240;1073;-54
2020/12/11 01:05:40;;;;;;;;;;;19.30;40.00;;;;;;491584;240;2185;-54
2020/12/11 01:07:42;;;;;;;;;;;19.20;40.00;;;;;;491865;240;1061;-54
2020/12/11 01:09:43;;;;;;;;;;;19.20;40.00;;;;;;491550;240;1043;-54
2020/12/11 01:11:44;;;;;;;;;;;19.20;40.00;;;;;;491550;240;1108;-54
2020/12/11 01:13:46;;;;;;;;;;;19.20;40.00;;;;;;491682;240;1311;-54
2020/12/11 01:15:47;;;;;;;;;;;19.10;40.10;;;;;;491797;240;1053;-53
2020/12/11 01:17:48;;;;;;;;;;;19.20;40.10;;;;;;491615;240;968;-54
2020/12/11 01:19:49;;;;;;;;;;;19.10;40.10;;;;;;491592;240;983;-54
2020/12/11 01:21:51;;;;;;;;;;;19.10;40.10;;;;;;491623;240;1045;-53
2020/12/11 01:23:52;;;;;;;;;;;19.10;40.20;;;;;;491685;240;1079;-54
2020/12/11 01:25:53;;;;;;;;;;;19.00;40.20;;;;;;491571;240;2195;-54
2020/12/11 01:27:54;;;;;;;;;;;19.00;40.20;;;;;;491823;240;1115;-54
2020/12/11 01:29:56;;;;;;;;;;;19.00;40.20;;;;;;491646;240;1195;-54
2020/12/11 01:31:57;;;;;;;;;;;19.00;40.20;;;;;;491607;240;980;-53
2020/12/11 01:33:58;;;;;;;;;;;19.00;40.20;;;;;;491622;240;1053;-54
2020/12/11 01:36:00;;;;;;;;;;;19.00;40.20;;;;;;491630;240;1060;-53
2020/12/11 01:38:01;;;;;;;;;;;19.00;40.30;;;;;;491639;240;1024;-54
2020/12/11 01:40:02;;;;;;;;;;;19.00;40.30;;;;;;491642;240;1066;-54
2020/12/11 01:42:03;;;;;;;;;;;18.90;40.30;;;;;;491873;240;1057;-54
2020/12/11 01:44:05;;;;;;;;;;;18.90;40.30;;;;;;491728;240;2196;-54
2020/12/11 01:46:06;;;;;;;;;;;19.00;40.40;;;;;;491596;240;1132;-54
2020/12/11 01:48:07;;;;;;;;;;;18.90;40.40;;;;;;491635;242;1050;-54
2020/12/11 01:50:18;;;;;;;;;;;18.90;40.40;;;;;;491754;240;1019;-54
2020/12/11 01:52:10;;;;;;;;;;;18.90;40.40;;;;;;491544;242;2500;-54
2020/12/11 01:54:11;;;;;;;;;;;18.90;40.40;;;;;;491721;240;1075;-53
2020/12/11 01:56:13;;;;;;;;;;;18.90;40.40;;;;;;491661;240;1067;-54
2020/12/11 01:58:14;;;;;;;;;;;18.90;40.40;;;;;;491725;240;1252;-53
2020/12/11 02:00:17;;;;;;;;;;;18.90;40.40;;;;;;491605;240;1202;-54
2020/12/11 02:02:18;;;;;;;;;;;18.90;40.50;;;;;;491640;240;1024;-53
2020/12/11 02:04:19;;;;;;;;;;;18.80;40.50;;;;;;491552;240;2199;-54
2020/12/11 02:06:20;;;;;;;;;;;18.80;40.50;;;;;;491519;240;1252;-53
2020/12/11 02:08:22;;;;;;;;;;;18.80;40.50;;;;;;491631;240;1210;-54
2020/12/11 02:10:23;;;;;;;;;;;18.80;40.50;;;;;;491596;240;1032;-54
2020/12/11 02:12:24;;;;;;;;;;;18.80;40.50;;;;;;491591;240;1338;-54
2020/12/11 02:14:26;;;;;;;;;;;18.80;40.50;;;;;;491631;240;1185;-54
2020/12/11 02:16:27;;;;;;;;;;;18.80;40.50;;;;;;491536;240;1233;-53
2020/12/11 02:18:28;;;;;;;;;;;18.80;40.50;;;;;;491584;240;1037;-54
2020/12/11 02:20:29;;;;;;;;;;;18.80;40.60;;;;;;491562;240;1070;-53
2020/12/11 02:22:31;;;;;;;;;;;18.70;40.50;;;;;;491507;240;1561;-54
2020/12/11 02:24:32;;;;;;;;;;;18.70;40.50;;;;;;491602;240;2187;-54
2020/12/11 02:26:33;;;;;;;;;;;18.70;40.50;;;;;;491651;240;1172;-54
2020/12/11 02:28:34;;;;;;;;;;;18.70;40.60;;;;;;491679;240;1106;-53
2020/12/11 02:30:36;;;;;;;;;;;18.70;40.50;;;;;;491572;240;1236;-54
2020/12/11 02:32:37;;;;;;;;;;;18.70;40.60;;;;;;491586;240;1210;-54
2020/12/11 02:34:38;;;;;;;;;;;18.70;40.60;;;;;;491539;240;1035;-53
2020/12/11 02:36:40;;;;;;;;;;;18.70;40.60;;;;;;491558;240;1211;-54
2020/12/11 02:38:41;;;;;;;;;;;18.70;40.60;;;;;;491578;240;1053;-53
2020/12/11 02:40:42;;;;;;;;;;;18.70;40.60;;;;;;491538;240;1099;-54
2020/12/11 02:42:44;;;;;;;;;;;18.70;40.60;;;;;;491574;240;1049;-54
2020/12/11 02:44:45;;;;;;;;;;;18.70;40.60;;;;;;491578;240;2208;-53
2020/12/11 02:46:46;;;;;;;;;;;18.70;40.60;;;;;;491640;240;1080;-53
2020/12/11 02:48:47;;;;;;;;;;;18.60;40.60;;;;;;491600;240;1089;-54
2020/12/11 02:50:49;;;;;;;;;;;18.60;40.60;;;;;;491668;240;1064;-54
2020/12/11 02:52:50;;;;;;;;;;;18.70;40.70;;;;;;491607;240;1093;-54
2020/12/11 02:54:51;;;;;;;;;;;18.60;40.60;;;;;;491786;240;1218;-53
2020/12/11 02:56:53;;;;;;;;;;;18.60;40.60;;;;;;491610;240;1054;-54
2020/12/11 02:58:54;;;;;;;;;;;18.60;40.60;;;;;;491595;240;1009;-54
2020/12/11 03:00:55;;;;;;;;;;;18.60;40.70;;;;;;491573;240;1179;-54
2020/12/11 03:02:56;;;;;;;;;;;18.60;40.60;;;;;;491538;240;1084;-54
2020/12/11 03:04:58;;;;;;;;;;;18.60;40.60;;;;;;491561;240;2187;-54
2020/12/11 03:06:59;;;;;;;;;;;18.60;40.60;;;;;;491540;240;1044;-54
2020/12/11 03:09:02;;;;;;;;;;;18.60;40.70;;;;;;491685;240;1033;-54
2020/12/11 03:11:03;;;;;;;;;;;18.60;40.70;;;;;;491550;240;1060;-54
2020/12/11 03:13:04;;;;;;;;;;;18.60;40.70;;;;;;491708;240;1224;-54
2020/12/11 03:15:06;;;;;;;;;;;18.50;40.60;;;;;;491613;240;1200;-54
2020/12/11 03:17:07;;;;;;;;;;;18.60;40.70;;;;;;491532;240;1306;-54
2020/12/11 03:19:08;;;;;;;;;;;18.60;40.70;;;;;;491614;240;1055;-54
2020/12/11 03:21:09;;;;;;;;;;;18.50;40.60;;;;;;491760;240;1344;-54
2020/12/11 03:23:11;;;;;;;;;;;18.50;40.60;;;;;;491599;240;1054;-54
2020/12/11 03:25:12;;;;;;;;;;;18.50;40.60;;;;;;491521;240;2183;-53
2020/12/11 03:27:13;;;;;;;;;;;18.50;40.70;;;;;;491575;240;1195;-54
2020/12/11 03:29:15;;;;;;;;;;;18.50;40.70;;;;;;491989;240;1072;-54
2020/12/11 03:31:16;;;;;;;;;;;18.50;40.70;;;;;;491598;240;1214;-54
2020/12/11 03:33:17;;;;;;;;;;;18.50;40.70;;;;;;491674;240;1052;-54
2020/12/11 03:35:19;;;;;;;;;;;18.50;40.70;;;;;;491594;240;1129;-54
2020/12/11 03:37:20;;;;;;;;;;;18.50;40.70;;;;;;491623;240;1057;-53
2020/12/11 03:39:21;;;;;;;;;;;18.50;40.70;;;;;;491645;240;1246;-53
2020/12/11 03:41:23;;;;;;;;;;;18.50;40.70;;;;;;491567;240;1038;-54
2020/12/11 03:43:24;;;;;;;;;;;18.50;40.70;;;;;;491565;240;1037;-53
2020/12/11 03:45:25;;;;;;;;;;;18.50;40.70;;;;;;491782;240;2212;-54
2020/12/11 03:47:26;;;;;;;;;;;18.50;40.70;;;;;;491535;240;975;-54
2020/12/11 03:49:28;;;;;;;;;;;18.50;40.70;;;;;;491876;240;1032;-54
2020/12/11 03:51:29;;;;;;;;;;;18.50;40.70;;;;;;491662;240;968;-54
2020/12/11 03:53:30;;;;;;;;;;;18.50;40.70;;;;;;491597;240;1046;-53
2020/12/11 03:55:32;;;;;;;;;;;18.50;40.70;;;;;;491585;240;1078;-54
2020/12/11 03:57:33;;;;;;;;;;;18.50;40.70;;;;;;491633;240;1040;-54
2020/12/11 03:59:34;;;;;;;;;;;18.50;40.70;;;;;;491623;240;1053;-54
2020/12/11 04:01:35;;;;;;;;;;;18.50;40.70;;;;;;491608;240;1110;-53
2020/12/11 04:03:37;;;;;;;;;;;18.40;40.70;;;;;;491579;240;1033;-54
2020/12/11 04:05:38;;;;;;;;;;;18.40;40.70;;;;;;491552;240;2176;-54
2020/12/11 04:07:39;;;;;;;;;;;18.40;40.70;;;;;;491558;240;1033;-54
2020/12/11 04:09:40;;;;;;;;;;;18.50;40.70;;;;;;491593;240;1196;-53
2020/12/11 04:11:42;;;;;;;;;;;18.40;40.70;;;;;;491650;240;1090;-54
2020/12/11 04:13:43;;;;;;;;;;;18.50;40.70;;;;;;491661;240;1067;-54
2020/12/11 04:15:44;;;;;;;;;;;18.40;40.70;;;;;;491563;240;1205;-54
2020/12/11 04:17:46;;;;;;;;;;;18.40;40.70;;;;;;491693;240;1072;-54
2020/12/11 04:19:47;;;;;;;;;;;18.40;40.70;;;;;;491581;240;1400;-54
2020/12/11 04:21:48;;;;;;;;;;;18.40;40.70;;;;;;491592;240;1182;-54
2020/12/11 04:23:50;;;;;;;;;;;18.40;40.70;;;;;;491841;240;1107;-53
2020/12/11 04:25:51;;;;;;;;;;;18.40;40.70;;;;;;491539;240;2196;-54
2020/12/11 04:27:52;;;;;;;;;;;18.40;40.70;;;;;;491538;240;1129;-54
2020/12/11 04:29:53;;;;;;;;;;;18.40;40.70;;;;;;491747;240;1260;-54
2020/12/11 04:31:55;;;;;;;;;;;18.40;40.70;;;;;;491611;240;1178;-53
2020/12/11 04:33:56;;;;;;;;;;;18.40;40.70;;;;;;491601;240;947;-54
2020/12/11 04:35:57;;;;;;;;;;;18.40;40.80;;;;;;491713;240;1046;-53
2020/12/11 04:37:59;;;;;;;;;;;18.40;40.80;;;;;;491718;240;1050;-53
2020/12/11 04:40:00;;;;;;;;;;;18.40;40.80;;;;;;491576;240;1062;-54
2020/12/11 04:42:01;;;;;;;;;;;18.40;40.80;;;;;;491613;240;1023;-54
2020/12/11 04:44:02;;;;;;;;;;;18.40;40.80;;;;;;491544;240;982;-53
2020/12/11 04:46:04;;;;;;;;;;;18.40;40.70;;;;;;491521;240;2192;-54
2020/12/11 04:48:05;;;;;;;;;;;18.40;40.60;;;;;;491874;240;1187;-54
2020/12/11 04:50:06;;;;;;;;;;;18.40;40.60;;;;;;491622;240;1118;-54
2020/12/11 04:52:08;;;;;;;;;;;18.50;40.60;;;;;;491641;240;1066;-54
2020/12/11 04:54:09;;;;;;;;;;;18.50;40.50;;;;;;492033;240;1073;-54
2020/12/11 04:56:10;;;;;;;;;;;18.60;40.50;;;;;;491623;240;1005;-54
2020/12/11 04:58:11;;;;;;;;;;;18.50;40.50;;;;;;491738;240;1195;-53
2020/12/11 05:00:13;;;;;;;;;;;18.50;40.40;;;;;;491544;240;1214;-54
2020/12/11 05:02:14;;;;;;;;;;;18.50;40.40;;;;;;491666;240;1235;-54
2020/12/11 05:04:15;;;;;;;;;;;18.60;40.40;;;;;;491627;240;1084;-54
2020/12/11 05:06:17;;;;;;;;;;;18.60;40.30;;;;;;491584;240;2196;-54
2020/12/11 05:08:18;;;;;;;;;;;18.60;40.30;;;;;;491701;240;1089;-54
2020/12/11 05:10:19;;;;;;;;;;;18.60;40.30;;;;;;491583;240;1252;-54
2020/12/11 05:12:20;;;;;;;;;;;18.70;40.20;;;;;;491496;240;1131;-54
2020/12/11 05:14:22;;;;;;;;;;;18.70;40.20;;;;;;491564;240;996;-54
2020/12/11 05:16:23;;;;;;;;;;;18.70;40.20;;;;;;491590;240;1174;-53
2020/12/11 05:18:24;;;;;;;;;;;18.70;40.20;;;;;;491556;240;1042;-54
2020/12/11 05:20:25;;;;;;;;;;;18.70;40.10;;;;;;491617;240;1121;-53
2020/12/11 05:22:27;;;;;;;;;;;18.70;40.10;;;;;;491493;240;1066;-54
2020/12/11 05:24:28;;;;;;;;;;;18.80;40.10;;;;;;491490;240;1127;-54
2020/12/11 05:26:29;;;;;;;;;;;18.80;40.10;;;;;;491630;240;2200;-54
2020/12/11 05:28:31;;;;;;;;;;;18.80;40.00;;;;;;491538;240;981;-54
2020/12/11 05:30:32;;;;;;;;;;;18.80;40.00;;;;;;491512;240;975;-53
2020/12/11 05:32:33;;;;;;;;;;;18.80;40.00;;;;;;491557;240;1193;-54
2020/12/11 05:34:34;;;;;;;;;;;18.80;39.90;;;;;;491531;240;1034;-54
2020/12/11 05:36:36;;;;;;;;;;;18.90;39.90;;;;;;491573;240;1143;-54
2020/12/11 05:38:37;;;;;;;;;;;18.90;39.90;;;;;;491460;240;1251;-53
2020/12/11 05:40:38;;;;;;;;;;;18.90;39.90;;;;;;491523;240;1089;-54
2020/12/11 05:42:40;;;;;;;;;;;18.90;39.80;;;;;;491405;240;1194;-53
2020/12/11 05:44:41;;;;;;;;;;;18.90;39.80;;;;;;491381;240;1170;-53
2020/12/11 05:46:42;;;;;;;;;;;18.90;39.80;;;;;;491411;240;2188;-54
2020/12/11 05:48:43;;;;;;;;;;;19.00;39.80;;;;;;491670;240;1273;-53
2020/12/11 05:50:45;;;;;;;;;;;19.00;39.80;;;;;;491412;240;1228;-54
2020/12/11 05:52:46;;;;;;;;;;;19.00;39.80;;;;;;491420;240;1319;-54
2020/12/11 05:54:47;;;;;;;;;;;19.00;39.80;;;;;;491369;240;1322;-54
2020/12/11 05:56:48;;;;;;;;;;;19.00;39.70;;;;;;491441;240;1053;-54
2020/12/11 05:58:50;;;;;;;;;;;19.00;39.70;;;;;;491450;240;1044;-54
2020/12/11 06:00:51;;;;;;;;;;;19.10;39.70;;;;;;491410;240;1116;-54
2020/12/11 06:02:53;;;;;;;;;;;19.00;39.60;;;;;;491411;240;1235;-54
2020/12/11 06:04:54;;;;;;;;;;;19.10;39.70;;;;;;491379;240;1176;-53
2020/12/11 06:06:56;;;;;;;;;;;19.10;39.60;;;;;;491493;240;2208;-54
2020/12/11 06:08:58;;;;;;;;;;;19.10;39.60;;;;;;491402;240;1109;-54
2020/12/11 06:10:59;;;;;;;;;;;19.10;39.60;;;;;;491390;240;1070;-54
2020/12/11 06:13:00;;;;;;;;;;;19.10;39.60;;;;;;491376;240;1305;-54
2020/12/11 06:15:02;;;;;;;;;;;19.20;39.60;;;;;;491328;240;1061;-54
2020/12/11 06:17:03;;;;;;;;;;;19.20;39.60;;;;;;491417;240;1168;-54
2020/12/11 06:19:05;;;;;;;;;;;19.20;39.50;;;;;;491485;240;1000;-54
2020/12/11 06:21:06;;;;;;;;;;;19.20;39.50;;;;;;491381;240;1042;-54
2020/12/11 06:23:07;;;;;;;;;;;19.20;39.50;;;;;;491348;240;1024;-53
2020/12/11 06:25:08;;;;;;;;;;;19.20;39.50;;;;;;491318;240;1069;-54
2020/12/11 06:27:10;;;;;;;;;;;19.20;39.50;;;;;;491338;240;2208;-54
2020/12/11 06:29:11;;;;;;;;;;;19.20;39.40;;;;;;491376;240;1082;-54
2020/12/11 06:31:13;;;;;;;;;;;19.20;39.40;;;;;;491271;240;1425;-54
2020/12/11 06:33:14;;;;;;;;;;;19.30;39.40;;;;;;491332;240;1201;-54
2020/12/11 06:35:16;;;;;;;;;;;19.30;39.40;;;;;;491344;240;1027;-54
2020/12/11 06:37:17;;;;;;;;;;;19.30;39.40;;;;;;491318;240;1344;-54
2020/12/11 06:39:18;;;;;;;;;;;19.30;39.40;;;;;;491270;240;1050;-54
2020/12/11 06:41:19;;;;;;;;;;;19.30;39.30;;;;;;491242;240;1366;-54
2020/12/11 06:43:21;;;;;;;;;;;19.30;39.40;;;;;;491253;240;1068;-54
2020/12/11 06:45:22;;;;;;;;;;;19.30;39.30;;;;;;491113;240;1225;-54
2020/12/11 06:47:23;;;;;;;;;;;19.30;39.30;;;;;;491169;240;2189;-53
2020/12/11 06:49:25;;;;;;;;;;;19.40;39.30;;;;;;491252;240;1415;-54
2020/12/11 06:51:26;;;;;;;;;;;19.40;39.30;;;;;;491335;240;1184;-54
2020/12/11 06:53:27;;;;;;;;;;;19.40;39.30;;;;;;491158;240;1073;-54
2020/12/11 06:55:29;;;;;;;;;;;19.40;39.30;;;;;;491211;240;1050;-54
2020/12/11 06:57:30;;;;;;;;;;;19.40;39.30;;;;;;491369;240;993;-53
2020/12/11 06:59:31;;;;;;;;;;;19.40;39.20;;;;;;491290;240;1057;-53
2020/12/11 07:01:33;;;;;;;;;;;19.40;39.20;;;;;;491205;240;1063;-53
2020/12/11 07:03:34;;;;;;;;;;;19.40;37.90;;;;;;490911;240;1202;-54
2020/12/11 07:05:36;;;;;;;;;;;19.40;39.20;;;;;;491085;240;1104;-53
2020/12/11 07:07:37;;;;;;;;;;;19.40;39.10;;;;;;491111;240;2188;-54
2020/12/11 07:09:38;;;;;;;;;;;19.50;39.20;;;;;;491189;240;1073;-53
2020/12/11 07:11:39;;;;;;;;;;;19.40;39.20;;;;;;491196;240;1113;-53
2020/12/11 07:13:41;;;;;;;;;;;19.50;39.20;;;;;;491248;240;1126;-54
2020/12/11 07:15:42;;;;;;;;;;;19.50;39.20;;;;;;491086;240;1042;-53
2020/12/11 07:17:43;;;;;;;;;;;19.50;39.20;;;;;;490994;240;1118;-54
2020/12/11 07:19:44;;;;;;;;;;;19.50;39.20;;;;;;491085;240;1045;-53
2020/12/11 07:21:46;;;;;;;;;;;19.50;39.10;;;;;;491145;240;1072;-54
2020/12/11 07:23:47;;;;;;;;;;;19.50;39.10;;;;;;491078;240;1222;-54
2020/12/11 07:25:48;;;;;;;;;;;19.50;39.10;;;;;;491079;240;1043;-54
2020/12/11 07:27:50;;;;;;;;;;;19.50;39.10;;;;;;491006;240;2204;-54
2020/12/11 07:29:51;;;;;;;;;;;19.50;39.10;;;;;;491117;240;1082;-54
2020/12/11 07:31:53;;;;;;;;;;;19.60;39.10;;;;;;491086;240;1180;-54
2020/12/11 07:33:54;;;;;;;;;;;19.60;39.10;;;;;;491109;240;1241;-53
2020/12/11 07:35:55;;;;;;;;;;;19.60;39.10;;;;;;491012;240;1092;-54
2020/12/11 07:37:56;;;;;;;;;;;19.60;39.10;;;;;;491088;240;1063;-54
2020/12/11 07:39:58;;;;;;;;;;;19.60;39.10;;;;;;491060;240;1460;-54
2020/12/11 07:42:00;;;;;;;;;;;19.60;39.10;;;;;;491042;240;1064;-54
2020/12/11 07:44:01;;;;;;;;;;;19.60;39.00;;;;;;490964;240;2205;-54
2020/12/11 07:46:04;;;;;;;;;;;19.60;39.00;;;;;;490981;240;1141;-54
2020/12/11 07:48:03;;;;;;;;;;;19.60;39.00;;;;;;490925;242;2235;-54
2020/12/11 07:50:04;;;;;;;;;;;19.60;39.00;;;;;;490762;240;1125;-54
2020/12/11 07:52:06;;;;;;;;;;;19.60;37.70;;;;;;490993;240;1012;-53
2020/12/11 07:54:07;;;;;;;;;;;19.60;39.00;;;;;;491159;240;1048;-54
2020/12/11 07:56:08;;;;;;;;;;;19.60;39.00;;;;;;491015;240;1310;-54
2020/12/11 07:58:10;;;;;;;;;;;19.70;39.00;;;;;;490873;240;1040;-53
2020/12/11 08:00:11;;;;;;;;;;;19.60;39.00;;;;;;490751;240;1063;-54
2020/12/11 08:02:13;;;;;;;;;;;19.70;39.00;;;;;;490833;240;1039;-54
2020/12/11 08:04:14;;;;;;;;;;;19.70;38.90;;;;;;490895;240;1211;-54
2020/12/11 08:06:15;;;;;;;;;;;19.70;39.00;;;;;;490863;240;2189;-54
2020/12/11 08:08:16;;;;;;;;;;;19.70;39.00;;;;;;491015;240;1167;-54
2020/12/11 08:10:18;;;;;;;;;;;19.70;39.00;;;;;;490955;240;1058;-54
2020/12/11 08:12:20;;;;;;;;;;;19.70;39.00;;;;;;490796;240;1286;-54
2020/12/11 08:14:21;;;;;;;;;;;19.70;38.90;;;;;;490828;240;1148;-53
2020/12/11 08:16:22;;;;;;;;;;;19.70;37.60;;;;;;490890;240;1220;-54
2020/12/11 08:18:25;;;;;;;;;;;19.80;37.60;;;;;;491000;238;1326;-54
2020/12/11 08:20:25;;;;;;;;;;;19.70;38.90;;;;;;490963;240;2297;-54
2020/12/11 08:22:26;;;;;;;;;;;19.70;38.80;;;;;;490975;240;1057;-54
2020/12/11 08:24:27;;;;;;;;;;;19.80;38.90;;;;;;490948;240;1316;-54
2020/12/11 08:26:28;;;;;;;;;;;19.80;38.90;;;;;;490962;240;2187;-54
2020/12/11 08:28:30;;;;;;;;;;;19.80;38.90;;;;;;490784;240;1154;-54
2020/12/11 08:30:31;;;;;;;;;;;19.80;38.90;;;;;;490870;240;1086;-54
2020/12/11 08:32:33;;;;;;;;;;;19.80;38.90;;;;;;490891;240;1125;-54
2020/12/11 08:34:34;;;;;;;;;;;19.80;38.80;;;;;;490789;240;1121;-54
2020/12/11 08:36:35;;;;;;;;;;;19.80;38.80;;;;;;490759;240;1074;-53
2020/12/11 08:38:37;;;;;;;;;;;19.80;38.80;;;;;;490742;240;1266;-54
2020/12/11 08:40:38;;;;;;;;;;;19.80;38.80;;;;;;490775;240;1090;-54
2020/12/11 08:42:42;;;;;;;;;;;19.80;38.80;;;;;;490796;240;1099;-53
2020/12/11 08:44:55;;;;;;;;;;;19.80;38.80;;;;;;490815;241;1850;-54
2020/12/11 08:46:56;;;;;;;;;;;19.80;38.80;;;;;;490663;242;2254;-54
2020/12/11 08:48:58;;;;;;;;;;;19.80;38.80;;;;;;490608;242;2248;-54
2020/12/11 08:50:59;;;;;;;;;;;19.80;38.80;;;;;;490693;241;2233;-54
2020/12/11 08:52:58;;;;;;;;;;;19.80;38.80;;;;;;490956;241;2221;-54
2020/12/11 08:55:00;;;;;;;;;;;19.90;38.80;;;;;;490834;240;1084;-54
2020/12/11 08:57:01;;;;;;;;;;;19.80;38.80;;;;;;490851;240;1063;-54
2020/12/11 08:59:02;;;;;;;;;;;19.90;38.80;;;;;;490860;240;1039;-54
2020/12/11 09:01:05;;;;;;;;;;;19.90;38.80;;;;;;490892;240;1077;-54
2020/12/11 09:03:05;;;;;;;;;;;19.90;38.80;;;;;;490800;240;2332;-54
2020/12/11 09:05:06;;;;;;;;;;;19.90;38.70;;;;;;490822;240;1104;-53
2020/12/11 09:07:11;;;;;;;;;;;19.90;37.40;;;;;;490769;240;2187;-54
2020/12/11 09:09:09;;;;;;;;;;;19.90;38.70;;;;;;490749;240;2371;-53
2020/12/11 09:11:11;;;;;;;;;;;19.90;38.70;;;;;;490825;240;1080;-54
2020/12/11 09:13:12;;;;;;;;;;;19.90;38.70;;;;;;490836;240;1112;-53
2020/12/11 09:15:13;;;;;;;;;;;19.90;38.70;;;;;;490807;240;1102;-54
2020/12/11 09:17:14;;;;;;;;;;;19.90;38.70;;;;;;490829;240;1240;-54
2020/12/11 09:19:17;;;;;;;;;;;19.90;38.70;;;;;;490823;240;1175;-54
2020/12/11 09:21:17;;;;;;;;;;;19.90;38.70;;;;;;490938;242;2137;-54
2020/12/11 09:23:19;;;;;;;;;;;19.90;38.70;;;;;;490848;240;1097;-54
2020/12/11 09:25:20;;;;;;;;;;;19.90;38.60;;;;;;490863;240;1058;-53
2020/12/11 09:27:21;;;;;;;;;;;20.00;37.40;;;;;;490872;240;2187;-54
2020/12/11 09:29:28;;;;;;;;;;;19.90;38.70;;;;;;490785;240;1072;-54
2020/12/11 09:31:28;;;;;;;;;;;19.90;38.60;;;;;;491539;240;1416;-54
2020/12/11 09:33:34;;;;;;;;;;;19.90;38.60;;;;;;490778;240;1072;-54
2020/12/11 09:35:30;;;;;;;;;;;20.00;38.70;;;;;;490648;242;2162;-54
2020/12/11 09:37:32;;;;;;;;;;;20.00;38.90;;;;;;490717;240;1131;-54
2020/12/11 09:39:33;;;;;;;;;;;20.10;37.30;;;;;;490607;240;1271;-53
2020/12/11 09:41:34;;;;;;;;;;;20.10;38.60;;;;;;490672;240;1116;-54
2020/12/11 09:43:51;;;;;;;;;;;20.10;37.20;;;;;;490807;240;1092;-54
2020/12/11 09:45:47;;;;;;;;;;;20.00;38.50;;;;;;490706;241;2067;-53
2020/12/11 09:48:01;;;;;;;;;;;20.00;38.60;;;;;;490819;242;2196;-53
2020/12/11 09:50:09;;;;;;;;;;;20.00;38.70;;;;;;490786;242;2105;-54
2020/12/11 09:52:19;;;;;;;;;;;19.90;38.70;;;;;;490693;242;2403;-54
2020/12/11 09:54:15;;;;;;;;;;;19.90;38.80;;;;;;490645;242;2385;-53
2020/12/11 09:56:14;;;;;;;;;;;19.80;38.90;;;;;;490699;240;2048;-54
2020/12/11 09:58:15;;;;;;;;;;;19.80;39.00;;;;;;490864;240;1068;-53
2020/12/11 10:00:16;;;;;;;;;;;19.80;39.00;;;;;;490785;240;1048;-54
2020/12/11 10:02:28;;;;;;;;;;;19.80;39.10;;;;;;490714;240;1149;-54
2020/12/11 10:04:21;;;;;;;;;;;19.70;39.10;;;;;;490619;241;1508;-54
2020/12/11 10:06:23;;;;;;;;;;;19.70;39.20;;;;;;490624;240;1296;-54
2020/12/11 10:08:27;;;;;;;;;;;19.60;39.20;;;;;;490676;240;2182;-53
2020/12/11 10:10:28;;;;;;;;;;;19.60;39.20;;;;;;490705;240;1337;-54
2020/12/11 10:12:29;;;;;;;;;;;19.60;39.30;;;;;;491566;240;1044;-53
2020/12/11 10:14:33;;;;;;;;;;;19.60;39.30;;;;;;491055;240;1049;-54
2020/12/11 10:16:32;;;;;;;;;;;19.60;39.40;;;;;;490799;242;1375;-54
2020/12/11 10:18:35;;;;;;;;;;;19.50;39.40;;;;;;490725;240;1080;-53
2020/12/11 10:20:35;;;;;;;;;;;19.50;39.40;;;;;;490610;242;1359;-53
2020/12/11 10:22:37;;;;;;;;;;;19.50;39.50;;;;;;490927;240;1106;-53
2020/12/11 10:24:38;;;;;;;;;;;19.50;39.60;;;;;;490879;240;1263;-53
2020/12/11 10:26:40;;;;;;;;;;;19.40;39.60;;;;;;490927;240;1199;-53
2020/12/11 10:28:41;;;;;;;;;;;19.40;39.60;;;;;;490809;240;2183;-54
2020/12/11 10:30:42;;;;;;;;;;;19.30;38.30;;;;;;490868;241;1079;-54
2020/12/11 10:32:43;;;;;;;;;;;19.30;39.70;;;;;;490854;240;1017;-54
2020/12/11 10:34:45;;;;;;;;;;;19.30;39.70;;;;;;490819;240;1257;-54
2020/12/11 10:36:46;;;;;;;;;;;19.30;39.70;;;;;;490884;240;1035;-54
2020/12/11 10:38:47;;;;;;;;;;;19.30;39.80;;;;;;490943;240;1228;-54
2020/12/11 10:40:48;;;;;;;;;;;19.30;39.80;;;;;;491021;240;1176;-54
2020/12/11 10:42:50;;;;;;;;;;;19.30;39.80;;;;;;490871;240;1054;-54
2020/12/11 10:44:51;;;;;;;;;;;19.20;39.80;;;;;;490749;240;1132;-53
2020/12/11 10:46:52;;;;;;;;;;;19.20;39.80;;;;;;491032;240;1125;-53
2020/12/11 10:48:54;;;;;;;;;;;19.20;39.90;;;;;;490909;240;2195;-54
2020/12/11 10:50:55;;;;;;;;;;;19.20;39.90;;;;;;490913;240;1240;-54
2020/12/11 10:52:56;;;;;;;;;;;19.20;39.90;;;;;;491122;240;1554;-54
2020/12/11 10:54:58;;;;;;;;;;;19.20;40.00;;;;;;490856;240;1197;-53
2020/12/11 10:56:59;;;;;;;;;;;19.10;40.00;;;;;;491185;240;1032;-53
2020/12/11 10:59:00;;;;;;;;;;;19.10;40.00;;;;;;490863;240;1137;-54
2020/12/11 11:01:02;;;;;;;;;;;19.10;40.00;;;;;;490759;240;1424;-54
2020/12/11 11:03:03;;;;;;;;;;;19.10;40.00;;;;;;490863;240;1128;-53
2020/12/11 11:05:04;;;;;;;;;;;19.10;40.10;;;;;;490811;240;1200;-54
2020/12/11 11:07:12;;;;;;;;;;;19.00;40.10;;;;;;491088;240;1103;-53
2020/12/11 11:09:18;;;;;;;;;;;19.00;40.00;;;;;;490743;241;2246;-54
2020/12/11 11:11:16;;;;;;;;;;;19.00;40.10;;;;;;490910;241;2201;-53
2020/12/11 11:13:25;;;;;;;;;;;19.00;40.10;;;;;;490981;240;1080;-54
2020/12/11 11:15:33;;;;;;;;;;;19.00;40.10;;;;;;490798;241;2057;-53
2020/12/11 11:20:12;;;;;;;;;;;19.00;40.20;;;;;;490896;240;1174;-53
2020/12/11 11:22:31;;;;;;;;;;;19.00;38.90;;;;;;490704;242;2280;-54
2020/12/11 11:24:46;;;;;;;;;;;19.00;40.20;;;;;;490801;241;2032;-53
2020/12/11 11:26:59;;;;;;;;;;;18.90;40.10;;;;;;490721;241;2257;-54
2020/12/11 11:28:57;;;;;;;;;;;18.90;40.20;;;;;;490992;242;2229;-54
2020/12/11 11:30:58;;;;;;;;;;;18.90;40.20;;;;;;491005;240;1066;-54
2020/12/11 11:32:59;;;;;;;;;;;18.90;40.20;;;;;;490874;240;1042;-54
2020/12/11 11:35:00;;;;;;;;;;;19.00;40.30;;;;;;490969;240;1017;-53
2020/12/11 11:37:02;;;;;;;;;;;18.90;40.20;;;;;;490896;240;1195;-53
2020/12/11 11:39:03;;;;;;;;;;;18.90;40.20;;;;;;490900;240;1074;-53
2020/12/11 11:41:04;;;;;;;;;;;18.90;40.30;;;;;;490858;240;1061;-54
2020/12/11 11:43:06;;;;;;;;;;;18.90;40.20;;;;;;491037;240;1069;-54
2020/12/11 11:45:08;;;;;;;;;;;18.90;40.30;;;;;;490982;240;1064;-53
2020/12/11 11:47:08;;;;;;;;;;;18.90;40.30;;;;;;490973;240;2164;-54
2020/12/11 11:49:12;;;;;;;;;;;18.80;39.00;;;;;;491005;240;2180;-53
2020/12/11 11:51:17;;;;;;;;;;;18.80;40.30;;;;;;490977;238;2076;-53
2020/12/11 11:53:15;;;;;;;;;;;18.80;40.30;;;;;;490784;242;2395;-54
2020/12/11 11:55:15;;;;;;;;;;;18.80;40.30;;;;;;490826;242;2161;-54
2020/12/11 11:57:16;;;;;;;;;;;18.80;40.30;;;;;;490945;240;1079;-53
2020/12/11 11:59:18;;;;;;;;;;;18.80;40.30;;;;;;490988;240;1091;-53
2020/12/11 12:01:19;;;;;;;;;;;18.80;40.30;;;;;;490921;240;1311;-54